sensor_id;sensor_type;location;lat;lon;timestamp;P1;durP1;ratioP1;P2;durP2;ratioP2
28427;SDS011;15662;49.128;8.520;2024-03-25T00:00:24;2.42;;;1.67;;
28427;SDS011;15662;49.128;8.520;2024-03-25T00:02:50;3.35;;;1.90;;
28427;SDS011;15662;49.128;8.520;2024-03-25T00:05:17;3.33;;;1.85;;
28427;SDS011;15662;49.128;8.520;2024-03-25T00:07:51;2.20;;;1.60;;
28427;SDS011;15662;49.128;8.520;2024-03-25T00:10:18;2.97;;;1.75;;
28427;SDS011;15662;49.128;8.520;2024-03-25T00:12:46;3.38;;;1.52;;
28427;SDS011;15662;49.128;8.520;2024-03-25T00:15:18;3.38;;;1.90;;
28427;SDS011;15662;49.128;8.520;2024-03-25T00:17:45;2.70;;;1.60;;
28427;SDS011;15662;49.128;8.520;2024-03-25T00:20:15;2.15;;;1.65;;
28427;SDS011;15662;49.128;8.520;2024-03-25T00:22:41;3.08;;;2.03;;
28427;SDS011;15662;49.128;8.520;2024-03-25T00:25:07;3.28;;;1.98;;
28427;SDS011;15662;49.128;8.520;2024-03-25T00:27:34;2.78;;;1.70;;
28427;SDS011;15662;49.128;8.520;2024-03-25T00:30:01;2.80;;;1.65;;
28427;SDS011;15662;49.128;8.520;2024-03-25T00:32:27;2.97;;;1.70;;
28427;SDS011;15662;49.128;8.520;2024-03-25T00:34:54;4.75;;;1.70;;
28427;SDS011;15662;49.128;8.520;2024-03-25T00:37:20;3.38;;;1.80;;
28427;SDS011;15662;49.128;8.520;2024-03-25T00:39:46;4.15;;;2.00;;
28427;SDS011;15662;49.128;8.520;2024-03-25T00:42:12;1.90;;;1.63;;
28427;SDS011;15662;49.128;8.520;2024-03-25T00:44:38;2.97;;;1.83;;
28427;SDS011;15662;49.128;8.520;2024-03-25T00:47:05;4.15;;;1.88;;
28427;SDS011;15662;49.128;8.520;2024-03-25T00:49:31;2.80;;;1.70;;
28427;SDS011;15662;49.128;8.520;2024-03-25T00:51:57;3.95;;;2.10;;
28427;SDS011;15662;49.128;8.520;2024-03-25T00:54:23;2.72;;;1.60;;
28427;SDS011;15662;49.128;8.520;2024-03-25T00:56:50;3.60;;;1.80;;
28427;SDS011;15662;49.128;8.520;2024-03-25T00:59:17;4.65;;;1.80;;
28427;SDS011;15662;49.128;8.520;2024-03-25T01:01:43;3.30;;;1.80;;
28427;SDS011;15662;49.128;8.520;2024-03-25T01:04:09;3.72;;;1.70;;
28427;SDS011;15662;49.128;8.520;2024-03-25T01:06:35;5.25;;;1.88;;
28427;SDS011;15662;49.128;8.520;2024-03-25T01:09:01;2.90;;;1.70;;
28427;SDS011;15662;49.128;8.520;2024-03-25T01:11:29;3.53;;;1.85;;
28427;SDS011;15662;49.128;8.520;2024-03-25T01:13:56;3.13;;;1.92;;
28427;SDS011;15662;49.128;8.520;2024-03-25T01:16:22;2.38;;;1.90;;
28427;SDS011;15662;49.128;8.520;2024-03-25T01:18:48;4.15;;;1.90;;
28427;SDS011;15662;49.128;8.520;2024-03-25T01:21:14;2.80;;;1.90;;
28427;SDS011;15662;49.128;8.520;2024-03-25T01:23:40;1.83;;;1.70;;
28427;SDS011;15662;49.128;8.520;2024-03-25T01:26:06;2.78;;;1.80;;
28427;SDS011;15662;49.128;8.520;2024-03-25T01:28:33;3.67;;;2.20;;
28427;SDS011;15662;49.128;8.520;2024-03-25T01:30:59;2.60;;;2.10;;
28427;SDS011;15662;49.128;8.520;2024-03-25T01:33:25;3.00;;;1.73;;
28427;SDS011;15662;49.128;8.520;2024-03-25T01:35:51;2.90;;;2.05;;
28427;SDS011;15662;49.128;8.520;2024-03-25T01:38:20;2.67;;;1.92;;
28427;SDS011;15662;49.128;8.520;2024-03-25T01:40:46;3.30;;;1.63;;
28427;SDS011;15662;49.128;8.520;2024-03-25T01:43:12;3.60;;;1.90;;
28427;SDS011;15662;49.128;8.520;2024-03-25T01:45:38;2.58;;;1.83;;
28427;SDS011;15662;49.128;8.520;2024-03-25T01:48:06;3.83;;;2.05;;
28427;SDS011;15662;49.128;8.520;2024-03-25T01:50:44;3.33;;;2.08;;
28427;SDS011;15662;49.128;8.520;2024-03-25T01:53:11;2.88;;;2.00;;
28427;SDS011;15662;49.128;8.520;2024-03-25T01:55:39;2.35;;;1.80;;
28427;SDS011;15662;49.128;8.520;2024-03-25T01:58:08;2.58;;;2.05;;
28427;SDS011;15662;49.128;8.520;2024-03-25T02:00:34;4.70;;;1.98;;
28427;SDS011;15662;49.128;8.520;2024-03-25T02:03:01;2.90;;;2.00;;
28427;SDS011;15662;49.128;8.520;2024-03-25T02:05:28;4.28;;;1.98;;
28427;SDS011;15662;49.128;8.520;2024-03-25T02:07:54;6.35;;;1.90;;
28427;SDS011;15662;49.128;8.520;2024-03-25T02:10:21;3.13;;;1.92;;
28427;SDS011;15662;49.128;8.520;2024-03-25T02:12:47;2.58;;;1.95;;
28427;SDS011;15662;49.128;8.520;2024-03-25T02:15:15;4.55;;;1.92;;
28427;SDS011;15662;49.128;8.520;2024-03-25T02:17:41;3.72;;;1.98;;
28427;SDS011;15662;49.128;8.520;2024-03-25T02:20:07;5.15;;;1.90;;
28427;SDS011;15662;49.128;8.520;2024-03-25T02:22:34;3.80;;;1.80;;
28427;SDS011;15662;49.128;8.520;2024-03-25T02:25:03;5.50;;;1.77;;
28427;SDS011;15662;49.128;8.520;2024-03-25T02:27:33;3.20;;;2.03;;
28427;SDS011;15662;49.128;8.520;2024-03-25T02:30:07;2.75;;;1.52;;
28427;SDS011;15662;49.128;8.520;2024-03-25T02:32:38;3.40;;;1.70;;
28427;SDS011;15662;49.128;8.520;2024-03-25T02:35:08;4.93;;;2.03;;
28427;SDS011;15662;49.128;8.520;2024-03-25T02:37:40;3.22;;;2.05;;
28427;SDS011;15662;49.128;8.520;2024-03-25T02:40:08;3.47;;;2.17;;
28427;SDS011;15662;49.128;8.520;2024-03-25T02:42:35;3.53;;;1.90;;
28427;SDS011;15662;49.128;8.520;2024-03-25T02:45:02;4.20;;;2.38;;
28427;SDS011;15662;49.128;8.520;2024-03-25T02:47:30;2.45;;;1.98;;
28427;SDS011;15662;49.128;8.520;2024-03-25T02:49:56;2.88;;;1.95;;
28427;SDS011;15662;49.128;8.520;2024-03-25T02:52:23;2.97;;;1.92;;
28427;SDS011;15662;49.128;8.520;2024-03-25T02:54:49;2.42;;;2.00;;
28427;SDS011;15662;49.128;8.520;2024-03-25T02:57:15;3.45;;;1.80;;
28427;SDS011;15662;49.128;8.520;2024-03-25T02:59:41;4.47;;;2.20;;
28427;SDS011;15662;49.128;8.520;2024-03-25T03:02:07;3.60;;;1.80;;
28427;SDS011;15662;49.128;8.520;2024-03-25T03:04:34;3.58;;;1.90;;
28427;SDS011;15662;49.128;8.520;2024-03-25T03:07:00;2.88;;;1.90;;
28427;SDS011;15662;49.128;8.520;2024-03-25T03:09:26;2.80;;;1.90;;
28427;SDS011;15662;49.128;8.520;2024-03-25T03:11:52;4.47;;;2.10;;
28427;SDS011;15662;49.128;8.520;2024-03-25T03:14:18;3.60;;;1.95;;
28427;SDS011;15662;49.128;8.520;2024-03-25T03:16:44;5.10;;;1.90;;
28427;SDS011;15662;49.128;8.520;2024-03-25T03:19:10;4.97;;;2.50;;
28427;SDS011;15662;49.128;8.520;2024-03-25T03:21:36;3.10;;;1.98;;
28427;SDS011;15662;49.128;8.520;2024-03-25T03:24:03;3.08;;;1.88;;
28427;SDS011;15662;49.128;8.520;2024-03-25T03:26:30;3.10;;;1.90;;
28427;SDS011;15662;49.128;8.520;2024-03-25T03:28:57;2.63;;;1.83;;
28427;SDS011;15662;49.128;8.520;2024-03-25T03:31:23;3.20;;;1.92;;
28427;SDS011;15662;49.128;8.520;2024-03-25T03:33:51;2.83;;;1.80;;
28427;SDS011;15662;49.128;8.520;2024-03-25T03:36:18;3.47;;;2.00;;
28427;SDS011;15662;49.128;8.520;2024-03-25T03:38:46;4.72;;;1.90;;
28427;SDS011;15662;49.128;8.520;2024-03-25T03:41:12;3.60;;;1.95;;
28427;SDS011;15662;49.128;8.520;2024-03-25T03:43:38;3.38;;;1.92;;
28427;SDS011;15662;49.128;8.520;2024-03-25T03:46:04;4.50;;;1.88;;
28427;SDS011;15662;49.128;8.520;2024-03-25T03:48:31;3.42;;;1.77;;
28427;SDS011;15662;49.128;8.520;2024-03-25T03:50:57;2.63;;;1.65;;
28427;SDS011;15662;49.128;8.520;2024-03-25T03:53:23;2.65;;;1.70;;
28427;SDS011;15662;49.128;8.520;2024-03-25T03:55:53;4.18;;;1.77;;
28427;SDS011;15662;49.128;8.520;2024-03-25T03:58:20;2.85;;;1.60;;
28427;SDS011;15662;49.128;8.520;2024-03-25T04:00:47;2.25;;;1.45;;
28427;SDS011;15662;49.128;8.520;2024-03-25T04:03:13;2.15;;;1.67;;
28427;SDS011;15662;49.128;8.520;2024-03-25T04:05:39;1.75;;;1.55;;
28427;SDS011;15662;49.128;8.520;2024-03-25T04:08:06;3.65;;;1.95;;
28427;SDS011;15662;49.128;8.520;2024-03-25T04:10:34;1.80;;;1.52;;
28427;SDS011;15662;49.128;8.520;2024-03-25T04:13:01;4.60;;;1.75;;
28427;SDS011;15662;49.128;8.520;2024-03-25T04:15:35;4.30;;;1.70;;
28427;SDS011;15662;49.128;8.520;2024-03-25T04:18:02;5.28;;;1.95;;
28427;SDS011;15662;49.128;8.520;2024-03-25T04:20:30;4.07;;;2.17;;
28427;SDS011;15662;49.128;8.520;2024-03-25T04:23:05;2.78;;;1.80;;
28427;SDS011;15662;49.128;8.520;2024-03-25T04:25:33;4.90;;;1.90;;
28427;SDS011;15662;49.128;8.520;2024-03-25T04:28:05;5.10;;;1.90;;
28427;SDS011;15662;49.128;8.520;2024-03-25T04:30:32;3.58;;;1.80;;
28427;SDS011;15662;49.128;8.520;2024-03-25T04:32:59;2.92;;;1.90;;
28427;SDS011;15662;49.128;8.520;2024-03-25T04:35:26;2.35;;;1.88;;
28427;SDS011;15662;49.128;8.520;2024-03-25T04:37:52;2.60;;;1.90;;
28427;SDS011;15662;49.128;8.520;2024-03-25T04:40:20;4.55;;;2.13;;
28427;SDS011;15662;49.128;8.520;2024-03-25T04:42:47;3.35;;;1.95;;
28427;SDS011;15662;49.128;8.520;2024-03-25T04:45:14;3.40;;;2.22;;
28427;SDS011;15662;49.128;8.520;2024-03-25T04:47:40;3.25;;;1.98;;
28427;SDS011;15662;49.128;8.520;2024-03-25T04:50:07;2.25;;;1.55;;
28427;SDS011;15662;49.128;8.520;2024-03-25T04:52:34;4.43;;;2.00;;
28427;SDS011;15662;49.128;8.520;2024-03-25T04:55:01;5.80;;;2.58;;
28427;SDS011;15662;49.128;8.520;2024-03-25T04:57:27;6.20;;;2.72;;
28427;SDS011;15662;49.128;8.520;2024-03-25T04:59:53;4.70;;;3.20;;
28427;SDS011;15662;49.128;8.520;2024-03-25T05:02:19;4.20;;;2.90;;
28427;SDS011;15662;49.128;8.520;2024-03-25T05:04:46;5.10;;;3.40;;
28427;SDS011;15662;49.128;8.520;2024-03-25T05:07:12;3.30;;;2.40;;
28427;SDS011;15662;49.128;8.520;2024-03-25T05:09:39;5.85;;;2.60;;
28427;SDS011;15662;49.128;8.520;2024-03-25T05:12:05;3.08;;;2.15;;
28427;SDS011;15662;49.128;8.520;2024-03-25T05:14:31;6.28;;;2.22;;
28427;SDS011;15662;49.128;8.520;2024-03-25T05:16:57;4.13;;;2.38;;
28427;SDS011;15662;49.128;8.520;2024-03-25T05:19:24;4.30;;;2.50;;
28427;SDS011;15662;49.128;8.520;2024-03-25T05:21:50;4.03;;;2.53;;
28427;SDS011;15662;49.128;8.520;2024-03-25T05:24:16;4.43;;;2.30;;
28427;SDS011;15662;49.128;8.520;2024-03-25T05:26:42;2.83;;;2.20;;
28427;SDS011;15662;49.128;8.520;2024-03-25T05:29:08;4.38;;;2.38;;
28427;SDS011;15662;49.128;8.520;2024-03-25T05:31:35;3.47;;;2.28;;
28427;SDS011;15662;49.128;8.520;2024-03-25T05:34:02;3.10;;;2.22;;
28427;SDS011;15662;49.128;8.520;2024-03-25T05:36:33;3.05;;;2.30;;
28427;SDS011;15662;49.128;8.520;2024-03-25T05:39:00;4.47;;;2.33;;
28427;SDS011;15662;49.128;8.520;2024-03-25T05:41:26;2.40;;;2.13;;
28427;SDS011;15662;49.128;8.520;2024-03-25T05:43:52;3.13;;;2.05;;
28427;SDS011;15662;49.128;8.520;2024-03-25T05:46:19;3.22;;;2.15;;
28427;SDS011;15662;49.128;8.520;2024-03-25T05:48:45;4.78;;;2.38;;
28427;SDS011;15662;49.128;8.520;2024-03-25T05:51:11;4.22;;;2.10;;
28427;SDS011;15662;49.128;8.520;2024-03-25T05:53:40;4.38;;;2.17;;
28427;SDS011;15662;49.128;8.520;2024-03-25T05:56:07;4.20;;;2.58;;
28427;SDS011;15662;49.128;8.520;2024-03-25T05:58:33;4.20;;;2.88;;
28427;SDS011;15662;49.128;8.520;2024-03-25T06:00:59;5.35;;;2.60;;
28427;SDS011;15662;49.128;8.520;2024-03-25T06:03:26;3.33;;;2.03;;
28427;SDS011;15662;49.128;8.520;2024-03-25T06:05:52;3.85;;;2.05;;
28427;SDS011;15662;49.128;8.520;2024-03-25T06:08:18;5.00;;;2.53;;
28427;SDS011;15662;49.128;8.520;2024-03-25T06:10:53;3.42;;;2.28;;
28427;SDS011;15662;49.128;8.520;2024-03-25T06:13:19;5.25;;;2.30;;
28427;SDS011;15662;49.128;8.520;2024-03-25T06:15:46;3.55;;;2.05;;
28427;SDS011;15662;49.128;8.520;2024-03-25T06:18:12;4.20;;;2.28;;
28427;SDS011;15662;49.128;8.520;2024-03-25T06:20:38;3.85;;;1.85;;
28427;SDS011;15662;49.128;8.520;2024-03-25T06:23:05;6.55;;;2.95;;
28427;SDS011;15662;49.128;8.520;2024-03-25T06:25:31;3.97;;;2.58;;
28427;SDS011;15662;49.128;8.520;2024-03-25T06:27:58;3.63;;;2.47;;
28427;SDS011;15662;49.128;8.520;2024-03-25T06:30:25;3.47;;;2.40;;
28427;SDS011;15662;49.128;8.520;2024-03-25T06:33:09;4.13;;;2.00;;
28427;SDS011;15662;49.128;8.520;2024-03-25T06:35:54;4.00;;;2.20;;
28427;SDS011;15662;49.128;8.520;2024-03-25T06:38:20;4.63;;;2.42;;
28427;SDS011;15662;49.128;8.520;2024-03-25T06:40:46;5.25;;;2.22;;
28427;SDS011;15662;49.128;8.520;2024-03-25T06:43:13;4.63;;;2.25;;
28427;SDS011;15662;49.128;8.520;2024-03-25T06:45:41;4.18;;;1.92;;
28427;SDS011;15662;49.128;8.520;2024-03-25T06:48:07;2.50;;;1.98;;
28427;SDS011;15662;49.128;8.520;2024-03-25T06:50:33;3.72;;;2.10;;
28427;SDS011;15662;49.128;8.520;2024-03-25T06:53:00;4.60;;;2.60;;
28427;SDS011;15662;49.128;8.520;2024-03-25T06:55:26;4.25;;;2.47;;
28427;SDS011;15662;49.128;8.520;2024-03-25T06:57:53;4.93;;;2.55;;
28427;SDS011;15662;49.128;8.520;2024-03-25T07:00:20;3.58;;;2.05;;
28427;SDS011;15662;49.128;8.520;2024-03-25T07:02:48;5.68;;;2.30;;
28427;SDS011;15662;49.128;8.520;2024-03-25T07:05:14;3.90;;;2.08;;
28427;SDS011;15662;49.128;8.520;2024-03-25T07:07:40;3.92;;;2.28;;
28427;SDS011;15662;49.128;8.520;2024-03-25T07:10:07;4.43;;;2.50;;
28427;SDS011;15662;49.128;8.520;2024-03-25T07:12:33;5.95;;;2.95;;
28427;SDS011;15662;49.128;8.520;2024-03-25T07:14:59;4.13;;;2.30;;
28427;SDS011;15662;49.128;8.520;2024-03-25T07:17:26;3.97;;;1.88;;
28427;SDS011;15662;49.128;8.520;2024-03-25T07:19:52;4.35;;;2.28;;
28427;SDS011;15662;49.128;8.520;2024-03-25T07:22:18;5.63;;;2.30;;
28427;SDS011;15662;49.128;8.520;2024-03-25T07:24:44;3.83;;;2.08;;
28427;SDS011;15662;49.128;8.520;2024-03-25T07:27:11;3.42;;;2.38;;
28427;SDS011;15662;49.128;8.520;2024-03-25T07:29:38;3.28;;;2.50;;
28427;SDS011;15662;49.128;8.520;2024-03-25T07:32:04;4.97;;;3.08;;
28427;SDS011;15662;49.128;8.520;2024-03-25T07:34:30;4.88;;;2.50;;
28427;SDS011;15662;49.128;8.520;2024-03-25T07:36:57;4.53;;;2.25;;
28427;SDS011;15662;49.128;8.520;2024-03-25T07:39:23;4.78;;;2.40;;
28427;SDS011;15662;49.128;8.520;2024-03-25T07:41:49;3.70;;;2.15;;
28427;SDS011;15662;49.128;8.520;2024-03-25T07:44:16;4.38;;;2.30;;
28427;SDS011;15662;49.128;8.520;2024-03-25T07:46:42;4.38;;;2.20;;
28427;SDS011;15662;49.128;8.520;2024-03-25T07:49:08;3.72;;;2.25;;
28427;SDS011;15662;49.128;8.520;2024-03-25T07:51:34;5.40;;;2.40;;
28427;SDS011;15662;49.128;8.520;2024-03-25T07:54:01;4.57;;;2.13;;
28427;SDS011;15662;49.128;8.520;2024-03-25T07:56:31;5.75;;;2.30;;
28427;SDS011;15662;49.128;8.520;2024-03-25T07:58:58;6.35;;;2.20;;
28427;SDS011;15662;49.128;8.520;2024-03-25T08:01:25;3.70;;;2.20;;
28427;SDS011;15662;49.128;8.520;2024-03-25T08:03:51;3.75;;;2.25;;
28427;SDS011;15662;49.128;8.520;2024-03-25T08:06:17;3.88;;;2.22;;
28427;SDS011;15662;49.128;8.520;2024-03-25T08:08:43;4.78;;;1.90;;
28427;SDS011;15662;49.128;8.520;2024-03-25T08:11:09;6.53;;;2.63;;
28427;SDS011;15662;49.128;8.520;2024-03-25T08:13:35;6.00;;;2.25;;
28427;SDS011;15662;49.128;8.520;2024-03-25T08:16:02;4.13;;;2.40;;
28427;SDS011;15662;49.128;8.520;2024-03-25T08:18:29;2.63;;;2.28;;
28427;SDS011;15662;49.128;8.520;2024-03-25T08:20:55;3.63;;;2.28;;
28427;SDS011;15662;49.128;8.520;2024-03-25T08:23:21;4.03;;;2.20;;
28427;SDS011;15662;49.128;8.520;2024-03-25T08:25:47;6.07;;;2.22;;
28427;SDS011;15662;49.128;8.520;2024-03-25T08:28:14;4.28;;;2.00;;
28427;SDS011;15662;49.128;8.520;2024-03-25T08:30:40;6.05;;;2.30;;
28427;SDS011;15662;49.128;8.520;2024-03-25T08:33:06;3.78;;;2.10;;
28427;SDS011;15662;49.128;8.520;2024-03-25T08:35:33;3.22;;;2.08;;
28427;SDS011;15662;49.128;8.520;2024-03-25T08:37:59;4.22;;;2.10;;
28427;SDS011;15662;49.128;8.520;2024-03-25T08:40:26;3.20;;;1.70;;
28427;SDS011;15662;49.128;8.520;2024-03-25T08:42:52;3.60;;;2.00;;
28427;SDS011;15662;49.128;8.520;2024-03-25T08:45:18;3.83;;;2.10;;
28427;SDS011;15662;49.128;8.520;2024-03-25T08:47:45;3.50;;;1.83;;
28427;SDS011;15662;49.128;8.520;2024-03-25T08:50:11;4.35;;;1.65;;
28427;SDS011;15662;49.128;8.520;2024-03-25T08:52:37;2.90;;;1.48;;
28427;SDS011;15662;49.128;8.520;2024-03-25T08:55:05;2.42;;;1.35;;
28427;SDS011;15662;49.128;8.520;2024-03-25T08:57:32;4.22;;;1.25;;
28427;SDS011;15662;49.128;8.520;2024-03-25T08:59:58;2.38;;;1.55;;
28427;SDS011;15662;49.128;8.520;2024-03-25T09:02:24;2.28;;;1.30;;
28427;SDS011;15662;49.128;8.520;2024-03-25T09:04:51;5.63;;;1.42;;
28427;SDS011;15662;49.128;8.520;2024-03-25T09:07:18;3.08;;;1.33;;
28427;SDS011;15662;49.128;8.520;2024-03-25T09:09:44;3.35;;;1.25;;
28427;SDS011;15662;49.128;8.520;2024-03-25T09:12:33;2.83;;;1.10;;
28427;SDS011;15662;49.128;8.520;2024-03-25T09:15:00;2.50;;;1.10;;
28427;SDS011;15662;49.128;8.520;2024-03-25T09:17:26;3.47;;;1.02;;
28427;SDS011;15662;49.128;8.520;2024-03-25T09:19:52;3.65;;;1.38;;
28427;SDS011;15662;49.128;8.520;2024-03-25T09:22:19;3.75;;;1.52;;
28427;SDS011;15662;49.128;8.520;2024-03-25T09:24:45;2.92;;;1.20;;
28427;SDS011;15662;49.128;8.520;2024-03-25T09:27:11;3.75;;;1.48;;
28427;SDS011;15662;49.128;8.520;2024-03-25T09:29:37;2.70;;;1.30;;
28427;SDS011;15662;49.128;8.520;2024-03-25T09:32:03;3.50;;;1.70;;
28427;SDS011;15662;49.128;8.520;2024-03-25T09:34:30;2.78;;;1.25;;
28427;SDS011;15662;49.128;8.520;2024-03-25T09:36:56;2.20;;;1.20;;
28427;SDS011;15662;49.128;8.520;2024-03-25T09:39:22;2.45;;;1.30;;
28427;SDS011;15662;49.128;8.520;2024-03-25T09:41:49;4.20;;;1.27;;
28427;SDS011;15662;49.128;8.520;2024-03-25T09:44:21;5.05;;;1.35;;
28427;SDS011;15662;49.128;8.520;2024-03-25T09:46:50;4.80;;;1.30;;
28427;SDS011;15662;49.128;8.520;2024-03-25T09:49:17;2.22;;;1.00;;
28427;SDS011;15662;49.128;8.520;2024-03-25T09:51:44;2.40;;;1.40;;
28427;SDS011;15662;49.128;8.520;2024-03-25T09:54:11;2.58;;;1.35;;
28427;SDS011;15662;49.128;8.520;2024-03-25T09:56:37;2.75;;;1.00;;
28427;SDS011;15662;49.128;8.520;2024-03-25T09:59:04;2.17;;;1.20;;
28427;SDS011;15662;49.128;8.520;2024-03-25T10:01:31;1.33;;;0.98;;
28427;SDS011;15662;49.128;8.520;2024-03-25T10:03:57;2.45;;;1.20;;
28427;SDS011;15662;49.128;8.520;2024-03-25T10:06:23;3.78;;;1.20;;
28427;SDS011;15662;49.128;8.520;2024-03-25T10:08:53;1.63;;;0.90;;
28427;SDS011;15662;49.128;8.520;2024-03-25T10:11:19;2.42;;;1.02;;
28427;SDS011;15662;49.128;8.520;2024-03-25T10:13:45;2.90;;;1.50;;
28427;SDS011;15662;49.128;8.520;2024-03-25T10:16:12;2.15;;;1.33;;
28427;SDS011;15662;49.128;8.520;2024-03-25T10:18:38;2.20;;;1.20;;
28427;SDS011;15662;49.128;8.520;2024-03-25T10:21:09;1.95;;;1.10;;
28427;SDS011;15662;49.128;8.520;2024-03-25T10:23:35;2.40;;;1.23;;
28427;SDS011;15662;49.128;8.520;2024-03-25T10:28:33;1.88;;;0.90;;
28427;SDS011;15662;49.128;8.520;2024-03-25T10:31:03;5.07;;;1.10;;
28427;SDS011;15662;49.128;8.520;2024-03-25T10:33:31;1.63;;;1.07;;
28427;SDS011;15662;49.128;8.520;2024-03-25T10:35:57;1.58;;;1.00;;
28427;SDS011;15662;49.128;8.520;2024-03-25T10:38:27;6.23;;;1.20;;
28427;SDS011;15662;49.128;8.520;2024-03-25T10:40:55;2.47;;;0.98;;
28427;SDS011;15662;49.128;8.520;2024-03-25T10:43:25;2.85;;;1.20;;
28427;SDS011;15662;49.128;8.520;2024-03-25T10:45:55;4.90;;;1.17;;
28427;SDS011;15662;49.128;8.520;2024-03-25T10:48:37;1.20;;;1.02;;
28427;SDS011;15662;49.128;8.520;2024-03-25T10:51:08;3.30;;;2.30;;
28427;SDS011;15662;49.128;8.520;2024-03-25T10:53:36;2.78;;;1.50;;
28427;SDS011;15662;49.128;8.520;2024-03-25T10:56:04;3.42;;;1.73;;
28427;SDS011;15662;49.128;8.520;2024-03-25T10:58:31;2.92;;;1.17;;
28427;SDS011;15662;49.128;8.520;2024-03-25T11:00:59;2.83;;;1.20;;
28427;SDS011;15662;49.128;8.520;2024-03-25T11:03:26;1.73;;;1.20;;
28427;SDS011;15662;49.128;8.520;2024-03-25T11:05:53;1.88;;;1.00;;
28427;SDS011;15662;49.128;8.520;2024-03-25T11:08:19;1.83;;;0.98;;
28427;SDS011;15662;49.128;8.520;2024-03-25T11:10:46;1.40;;;1.00;;
28427;SDS011;15662;49.128;8.520;2024-03-25T11:13:13;2.03;;;1.10;;
28427;SDS011;15662;49.128;8.520;2024-03-25T11:15:42;2.17;;;0.98;;
28427;SDS011;15662;49.128;8.520;2024-03-25T11:18:11;1.63;;;1.05;;
28427;SDS011;15662;49.128;8.520;2024-03-25T11:23:09;1.27;;;0.77;;
28427;SDS011;15662;49.128;8.520;2024-03-25T11:25:37;1.60;;;1.15;;
28427;SDS011;15662;49.128;8.520;2024-03-25T11:28:04;2.10;;;1.38;;
28427;SDS011;15662;49.128;8.520;2024-03-25T11:30:31;1.85;;;1.10;;
28427;SDS011;15662;49.128;8.520;2024-03-25T11:32:58;1.20;;;1.08;;
28427;SDS011;15662;49.128;8.520;2024-03-25T11:35:28;1.73;;;1.00;;
28427;SDS011;15662;49.128;8.520;2024-03-25T11:37:54;2.55;;;1.13;;
28427;SDS011;15662;49.128;8.520;2024-03-25T11:40:21;2.50;;;1.27;;
28427;SDS011;15662;49.128;8.520;2024-03-25T11:42:47;1.73;;;0.95;;
28427;SDS011;15662;49.128;8.520;2024-03-25T11:45:14;1.45;;;1.23;;
28427;SDS011;15662;49.128;8.520;2024-03-25T11:47:46;2.08;;;1.20;;
28427;SDS011;15662;49.128;8.520;2024-03-25T11:50:16;2.17;;;1.20;;
28427;SDS011;15662;49.128;8.520;2024-03-25T11:52:43;1.70;;;1.17;;
28427;SDS011;15662;49.128;8.520;2024-03-25T11:55:10;1.27;;;1.17;;
28427;SDS011;15662;49.128;8.520;2024-03-25T11:57:42;1.52;;;1.20;;
28427;SDS011;15662;49.128;8.520;2024-03-25T12:00:09;5.30;;;1.25;;
28427;SDS011;15662;49.128;8.520;2024-03-25T12:02:43;2.78;;;1.20;;
28427;SDS011;15662;49.128;8.520;2024-03-25T12:05:12;1.90;;;0.95;;
28427;SDS011;15662;49.128;8.520;2024-03-25T12:07:39;1.83;;;1.20;;
28427;SDS011;15662;49.128;8.520;2024-03-25T12:10:05;1.88;;;1.10;;
28427;SDS011;15662;49.128;8.520;2024-03-25T12:12:51;4.88;;;1.27;;
28427;SDS011;15662;49.128;8.520;2024-03-25T12:15:19;2.17;;;1.02;;
28427;SDS011;15662;49.128;8.520;2024-03-25T12:17:46;1.75;;;1.15;;
28427;SDS011;15662;49.128;8.520;2024-03-25T12:20:16;1.58;;;1.05;;
28427;SDS011;15662;49.128;8.520;2024-03-25T12:22:43;1.15;;;1.00;;
28427;SDS011;15662;49.128;8.520;2024-03-25T12:25:09;4.55;;;1.30;;
28427;SDS011;15662;49.128;8.520;2024-03-25T12:27:37;2.45;;;1.10;;
28427;SDS011;15662;49.128;8.520;2024-03-25T12:32:38;2.42;;;1.20;;
28427;SDS011;15662;49.128;8.520;2024-03-25T12:35:08;1.85;;;1.10;;
28427;SDS011;15662;49.128;8.520;2024-03-25T12:37:37;2.03;;;1.00;;
28427;SDS011;15662;49.128;8.520;2024-03-25T12:40:05;1.42;;;1.13;;
28427;SDS011;15662;49.128;8.520;2024-03-25T12:42:34;2.03;;;1.10;;
28427;SDS011;15662;49.128;8.520;2024-03-25T12:45:01;3.40;;;1.38;;
28427;SDS011;15662;49.128;8.520;2024-03-25T12:47:28;3.38;;;1.20;;
28427;SDS011;15662;49.128;8.520;2024-03-25T12:49:58;2.25;;;1.10;;
28427;SDS011;15662;49.128;8.520;2024-03-25T12:52:25;1.98;;;1.13;;
28427;SDS011;15662;49.128;8.520;2024-03-25T12:54:51;0.82;;;0.80;;
28427;SDS011;15662;49.128;8.520;2024-03-25T12:57:17;2.17;;;1.20;;
28427;SDS011;15662;49.128;8.520;2024-03-25T12:59:47;1.15;;;1.00;;
28427;SDS011;15662;49.128;8.520;2024-03-25T13:02:15;7.30;;;1.13;;
28427;SDS011;15662;49.128;8.520;2024-03-25T13:04:45;2.53;;;1.02;;
28427;SDS011;15662;49.128;8.520;2024-03-25T13:07:12;2.05;;;1.20;;
28427;SDS011;15662;49.128;8.520;2024-03-25T13:09:39;1.23;;;0.80;;
28427;SDS011;15662;49.128;8.520;2024-03-25T13:12:05;1.67;;;1.10;;
28427;SDS011;15662;49.128;8.520;2024-03-25T13:14:31;1.02;;;0.93;;
28427;SDS011;15662;49.128;8.520;2024-03-25T13:16:57;2.10;;;1.02;;
28427;SDS011;15662;49.128;8.520;2024-03-25T13:19:23;1.52;;;1.00;;
28427;SDS011;15662;49.128;8.520;2024-03-25T13:21:53;1.27;;;1.02;;
28427;SDS011;15662;49.128;8.520;2024-03-25T13:24:21;2.58;;;1.10;;
28427;SDS011;15662;49.128;8.520;2024-03-25T13:26:48;1.35;;;1.00;;
28427;SDS011;15662;49.128;8.520;2024-03-25T13:29:14;1.95;;;1.00;;
28427;SDS011;15662;49.128;8.520;2024-03-25T13:31:40;2.33;;;1.17;;
28427;SDS011;15662;49.128;8.520;2024-03-25T13:34:06;2.10;;;0.80;;
28427;SDS011;15662;49.128;8.520;2024-03-25T13:36:32;1.10;;;1.00;;
28427;SDS011;15662;49.128;8.520;2024-03-25T13:38:58;1.70;;;1.05;;
28427;SDS011;15662;49.128;8.520;2024-03-25T13:41:25;4.18;;;0.93;;
28427;SDS011;15662;49.128;8.520;2024-03-25T13:43:51;2.90;;;1.10;;
28427;SDS011;15662;49.128;8.520;2024-03-25T13:46:17;2.63;;;0.75;;
28427;SDS011;15662;49.128;8.520;2024-03-25T13:48:44;2.30;;;0.85;;
28427;SDS011;15662;49.128;8.520;2024-03-25T13:51:13;2.92;;;0.88;;
28427;SDS011;15662;49.128;8.520;2024-03-25T13:53:39;3.22;;;1.10;;
28427;SDS011;15662;49.128;8.520;2024-03-25T13:56:05;2.95;;;1.33;;
28427;SDS011;15662;49.128;8.520;2024-03-25T13:58:32;2.75;;;1.05;;
28427;SDS011;15662;49.128;8.520;2024-03-25T14:00:58;0.80;;;0.80;;
28427;SDS011;15662;49.128;8.520;2024-03-25T14:03:26;2.50;;;0.98;;
28427;SDS011;15662;49.128;8.520;2024-03-25T14:05:52;1.02;;;0.90;;
28427;SDS011;15662;49.128;8.520;2024-03-25T14:08:18;1.85;;;1.08;;
28427;SDS011;15662;49.128;8.520;2024-03-25T14:10:44;2.28;;;1.05;;
28427;SDS011;15662;49.128;8.520;2024-03-25T14:13:10;2.42;;;1.00;;
28427;SDS011;15662;49.128;8.520;2024-03-25T14:15:37;3.17;;;1.15;;
28427;SDS011;15662;49.128;8.520;2024-03-25T14:18:03;1.60;;;0.90;;
28427;SDS011;15662;49.128;8.520;2024-03-25T14:20:30;3.40;;;1.25;;
28427;SDS011;15662;49.128;8.520;2024-03-25T14:22:56;2.22;;;1.00;;
28427;SDS011;15662;49.128;8.520;2024-03-25T14:25:23;1.55;;;0.90;;
28427;SDS011;15662;49.128;8.520;2024-03-25T14:27:49;2.13;;;1.10;;
28427;SDS011;15662;49.128;8.520;2024-03-25T14:30:15;3.28;;;0.82;;
28427;SDS011;15662;49.128;8.520;2024-03-25T14:32:41;2.70;;;0.98;;
28427;SDS011;15662;49.128;8.520;2024-03-25T14:35:07;0.95;;;0.70;;
28427;SDS011;15662;49.128;8.520;2024-03-25T14:37:33;2.50;;;0.90;;
28427;SDS011;15662;49.128;8.520;2024-03-25T14:40:00;5.10;;;1.25;;
28427;SDS011;15662;49.128;8.520;2024-03-25T14:42:26;1.58;;;1.10;;
28427;SDS011;15662;49.128;8.520;2024-03-25T14:44:52;3.92;;;1.00;;
28427;SDS011;15662;49.128;8.520;2024-03-25T14:47:18;1.38;;;1.00;;
28427;SDS011;15662;49.128;8.520;2024-03-25T14:49:44;2.08;;;0.90;;
28427;SDS011;15662;49.128;8.520;2024-03-25T14:52:11;2.85;;;0.95;;
28427;SDS011;15662;49.128;8.520;2024-03-25T14:54:37;1.98;;;1.10;;